Northampton, Pennsylvania
Current Conditions -  °F | °C
As of 1:51 PM on Thursday 30 Oct 2014 (Local Time) from KABE Reporting Station
Scattered Clouds Scattered Clouds  
Wind Chill: 56°   Ceiling: Unl
Heat Index: 56°   Visibility: 10mi
Dew Point: 35°   Wind: 12mph
Humidity: 45%   Direction: 320°NW
Pressure: 30"   Gusts: 20mph
Location:  40.69°N, 75.5°W
Report Text: KABE 301751Z 32010G17KT 10SM SCT050 13/02 A3000 RMK AO2 SLP161 T01330017 10139 20028 58009
Loading
Personal Weather Stations






























Interactive Weather Map
Tropical Storm Tracking
New forecast layout! Learn more

10-Day Weather Forecast

Advertisements
Track Severe Weather on mobile